Time;durP1;ratioP1;P1;durP2;ratioP2;P2;SDS_P1;SDS_P2;PMS_P1;PMS_P2;Temp;Humidity;BMP_temperature;BMP_pressure;BME280_temperature;BME280_humidity;BME280_pressure;Samples;Min_cycle;Max_cycle;Signal;HPM_P1;HPM_P2
2022/08/10 00:03:03;;;;;;;7.13;2.90;;;;;;;;;;10202068;29;20043;-80
2022/08/10 00:08:07;;;;;;;4.72;3.20;;;;;;;;;;10199166;29;20036;-80
2022/08/10 00:13:11;;;;;;;5.57;2.60;;;;;;;;;;10198636;29;20051;-80
2022/08/10 00:18:14;;;;;;;7.80;3.37;;;;;;;;;;10200377;29;20043;-79
2022/08/10 00:23:38;;;;;;;6.53;2.80;;;;;;;;;;10200140;29;20700;-79
2022/08/10 00:28:41;;;;;;;4.55;2.95;;;;;;;;;;10195019;29;20083;-80
2022/08/10 00:33:44;;;;;;;4.17;3.00;;;;;;;;;;10198983;29;20425;-80
2022/08/10 00:38:49;;;;;;;3.83;2.78;;;;;;;;;;10201410;29;20043;-80
2022/08/10 00:43:52;;;;;;;4.55;3.10;;;;;;;;;;10194099;29;20046;-80
2022/08/10 00:48:56;;;;;;;;;;;;;;;;;;10195923;29;20047;-80
2022/08/10 00:54:03;;;;;;;3.30;2.63;;;;;;;;;;10199706;29;19958;-79
2022/08/10 00:59:07;;;;;;;6.30;3.00;;;;;;;;;;10198049;29;20552;-80
2022/08/10 01:04:09;;;;;;;5.67;3.13;;;;;;;;;;10179844;29;20036;-80
2022/08/10 01:09:41;;;;;;;4.73;3.27;;;;;;;;;;10195352;29;20035;-79
2022/08/10 01:15:21;;;;;;;4.70;3.10;;;;;;;;;;10198184;29;20083;-79
2022/08/10 01:20:47;;;;;;;5.47;3.20;;;;;;;;;;10200408;29;20126;-80
2022/08/10 01:26:09;;;;;;;4.55;3.17;;;;;;;;;;10195617;29;20071;-80
2022/08/10 01:31:55;;;;;;;5.80;3.10;;;;;;;;;;10198622;29;20353;-79
2022/08/10 01:37:21;;;;;;;4.70;3.20;;;;;;;;;;10199929;29;20054;-79
2022/08/10 01:42:30;;;;;;;4.35;3.50;;;;;;;;;;10196816;29;20068;-79
2022/08/10 01:53:06;;;;;;;8.30;3.40;;;;;;;;;;10196127;29;20043;-80
2022/08/10 01:58:09;;;;;;;3.97;3.42;;;;;;;;;;10198263;29;20489;-79
2022/08/10 02:03:15;;;;;;;8.30;3.92;;;;;;;;;;10193596;29;20397;-79
2022/08/10 02:08:19;;;;;;;4.20;3.17;;;;;;;;;;10200106;29;20056;-80
2022/08/10 02:13:22;;;;;;;4.53;3.28;;;;;;;;;;10196846;29;20412;-79
2022/08/10 02:18:28;;;;;;;5.40;3.22;;;;;;;;;;10198857;29;20087;-79
2022/08/10 02:23:32;;;;;;;6.93;3.50;;;;;;;;;;10198154;29;20559;-80
2022/08/10 02:28:37;;;;;;;4.63;3.38;;;;;;;;;;10200435;29;20032;-81
2022/08/10 02:33:42;;;;;;;5.57;3.50;;;;;;;;;;10195168;29;20078;-80
2022/08/10 02:39:01;;;;;;;4.40;3.35;;;;;;;;;;10204344;29;20071;-80
2022/08/10 02:44:05;;;;;;;7.95;3.80;;;;;;;;;;10206669;29;20055;-80
2022/08/10 02:49:34;;;;;;;6.65;3.67;;;;;;;;;;10205584;29;20059;-80
2022/08/10 02:54:39;;;;;;;7.28;3.92;;;;;;;;;;10224745;28;20036;-80
2022/08/10 02:59:43;;;;;;;7.03;3.88;;;;;;;;;;10202550;29;20040;-80
2022/08/10 03:04:45;;;;;;;;;;;;;;;;;;10204379;29;20047;-80
2022/08/10 03:10:01;;;;;;;9.98;3.97;;;;;;;;;;10205105;29;19929;-81
2022/08/10 03:15:07;;;;;;;5.13;3.70;;;;;;;;;;10202606;29;20040;-81
2022/08/10 03:20:19;;;;;;;5.75;3.47;;;;;;;;;;10208384;29;20146;-80
2022/08/10 03:25:43;;;;;;;5.75;3.95;;;;;;;;;;10214782;28;20044;-81
2022/08/10 03:30:56;;;;;;;6.82;3.55;;;;;;;;;;10202816;29;20131;-79
2022/08/10 03:35:59;;;;;;;;;;;;;;;;;;10201090;29;20040;-79
2022/08/10 03:41:24;;;;;;;;;;;;;;;;;;10202763;29;19926;-79
2022/08/10 03:46:29;;;;;;;6.10;4.20;;;;;;;;;;10193381;29;19922;-80
2022/08/10 03:51:34;;;;;;;6.72;4.22;;;;;;;;;;10205148;29;20040;-79
2022/08/10 03:56:36;;;;;;;;;;;;;;;;;;10204036;29;20051;-80
2022/08/10 04:01:41;;;;;;;6.95;4.05;;;;;;;;;;10200224;29;20074;-80
2022/08/10 04:07:05;;;;;;;7.13;4.05;;;;;;;;;;10221059;28;20678;-80
2022/08/10 04:12:08;;;;;;;6.67;4.17;;;;;;;;;;10200985;29;20096;-80
2022/08/10 04:17:13;;;;;;;7.80;4.28;;;;;;;;;;10200853;29;20028;-80
2022/08/10 04:22:18;;;;;;;8.20;4.45;;;;;;;;;;10199965;29;20047;-80
2022/08/10 04:27:21;;;;;;;6.72;3.63;;;;;;;;;;10206497;29;20131;-79
2022/08/10 04:32:26;;;;;;;5.47;3.85;;;;;;;;;;10200790;29;20259;-79
2022/08/10 04:37:30;;;;;;;6.05;3.80;;;;;;;;;;10204013;29;20035;-81
2022/08/10 04:42:33;;;;;;;;;;;;;;;;;;10199662;29;20044;-79
2022/08/10 04:47:38;;;;;;;7.05;3.72;;;;;;;;;;10195737;29;20388;-79
2022/08/10 04:53:01;;;;;;;7.72;3.60;;;;;;;;;;10198558;29;20579;-80
2022/08/10 04:58:04;;;;;;;9.23;3.80;;;;;;;;;;10196359;29;20524;-79
2022/08/10 05:03:09;;;;;;;4.82;3.38;;;;;;;;;;10201072;28;20048;-79
2022/08/10 05:08:13;;;;;;;6.55;3.88;;;;;;;;;;10196275;29;20051;-80
2022/08/10 05:13:16;;;;;;;5.47;3.40;;;;;;;;;;10191535;29;20047;-80
2022/08/10 05:18:20;;;;;;;6.73;3.47;;;;;;;;;;10198303;29;20044;-80
2022/08/10 05:23:23;;;;;;;8.32;3.63;;;;;;;;;;10195484;29;20035;-80
2022/08/10 05:28:26;;;;;;;4.32;3.53;;;;;;;;;;10221491;28;20505;-80
2022/08/10 05:33:35;;;;;;;4.78;3.38;;;;;;;;;;10197958;29;20050;-80
2022/08/10 05:38:39;;;;;;;9.60;2.90;;;;;;;;;;10199336;29;20138;-80
2022/08/10 05:43:42;;;;;;;6.45;2.95;;;;;;;;;;10205856;29;20036;-80
2022/08/10 05:48:48;;;;;;;6.43;3.40;;;;;;;;;;10199317;29;20050;-79
2022/08/10 05:54:02;;;;;;;6.03;3.75;;;;;;;;;;10190646;29;20626;-79
2022/08/10 05:59:09;;;;;;;6.03;3.47;;;;;;;;;;10194978;29;20039;-81
2022/08/10 06:04:17;;;;;;;8.57;3.13;;;;;;;;;;10195490;29;20043;-80
2022/08/10 06:09:21;;;;;;;5.65;3.30;;;;;;;;;;10195840;29;20580;-82
2022/08/10 06:19:57;;;;;;;3.15;2.45;;;;;;;;;;10222434;28;20051;-80
2022/08/10 06:25:00;;;;;;;9.82;3.60;;;;;;;;;;10201237;29;20044;-81
2022/08/10 06:30:23;;;;;;;;;;;;;;;;;;10199074;29;20122;-80
2022/08/10 06:35:30;;;;;;;6.20;3.22;;;;;;;;;;10200874;29;20005;-80
2022/08/10 06:40:35;;;;;;;6.38;2.75;;;;;;;;;;10200256;29;20031;-80
2022/08/10 06:45:41;;;;;;;3.75;2.60;;;;;;;;;;10195742;29;20035;-80
2022/08/10 06:50:47;;;;;;;4.65;2.75;;;;;;;;;;10201111;29;20052;-80
2022/08/10 06:56:02;;;;;;;3.97;2.80;;;;;;;;;;10195433;29;20118;-81
2022/08/10 07:01:06;;;;;;;4.80;2.88;;;;;;;;;;10202131;29;20055;-80
2022/08/10 07:06:12;;;;;;;5.57;2.60;;;;;;;;;;10200882;29;20032;-80
2022/08/10 07:11:15;;;;;;;4.22;2.20;;;;;;;;;;10198918;29;20519;-80
2022/08/10 07:16:19;;;;;;;6.15;2.50;;;;;;;;;;10204048;29;20035;-80
2022/08/10 07:21:22;;;;;;;;;;;;;;;;;;10206174;29;20123;-79
2022/08/10 07:26:27;;;;;;;3.03;2.20;;;;;;;;;;10197009;29;19929;-80
2022/08/10 07:31:30;;;;;;;5.25;2.35;;;;;;;;;;10193680;29;20102;-79
2022/08/10 07:36:53;;;;;;;5.63;2.25;;;;;;;;;;10198709;29;20038;-80
2022/08/10 07:41:58;;;;;;;3.58;2.10;;;;;;;;;;10193967;29;20094;-80
2022/08/10 07:47:03;;;;;;;6.93;2.58;;;;;;;;;;10194110;29;20035;-79
2022/08/10 07:52:07;;;;;;;4.03;2.35;;;;;;;;;;10216215;28;20095;-79
2022/08/10 07:57:14;;;;;;;4.03;2.20;;;;;;;;;;10194698;29;20082;-80
2022/08/10 08:02:36;;;;;;;3.15;2.13;;;;;;;;;;10196939;29;20110;-81
2022/08/10 08:07:39;;;;;;;6.03;2.10;;;;;;;;;;10197179;29;20122;-81
2022/08/10 08:12:44;;;;;;;3.00;2.10;;;;;;;;;;10201669;29;20373;-80
2022/08/10 08:17:48;;;;;;;2.28;2.00;;;;;;;;;;10212561;28;20568;-80
2022/08/10 08:23:01;;;;;;;4.60;2.05;;;;;;;;;;10194392;29;20303;-80
2022/08/10 08:28:26;;;;;;;4.95;2.20;;;;;;;;;;10198094;29;20044;-80
2022/08/10 08:33:30;;;;;;;3.50;2.28;;;;;;;;;;10197709;29;20047;-82
2022/08/10 08:38:44;;;;;;;3.97;2.28;;;;;;;;;;10199503;29;20489;-81
2022/08/10 08:43:53;;;;;;;6.03;2.00;;;;;;;;;;10209083;28;20060;-81
2022/08/10 08:49:06;;;;;;;5.75;2.30;;;;;;;;;;10200176;29;20596;-81
2022/08/10 08:54:15;;;;;;;4.78;2.58;;;;;;;;;;10194862;29;20433;-81
2022/08/10 08:59:29;;;;;;;2.90;2.60;;;;;;;;;;10217954;28;20556;-82
2022/08/10 09:04:56;;;;;;;5.90;2.30;;;;;;;;;;10193237;29;20046;-82
2022/08/10 09:10:08;;;;;;;4.60;2.30;;;;;;;;;;10215076;28;20831;-81
2022/08/10 09:15:16;;;;;;;3.15;2.40;;;;;;;;;;10213169;28;20048;-81
2022/08/10 09:20:42;;;;;;;4.87;2.50;;;;;;;;;;10205842;28;20047;-81
2022/08/10 09:25:51;;;;;;;2.25;2.13;;;;;;;;;;10196222;29;20095;-81
2022/08/10 09:30:58;;;;;;;6.28;2.38;;;;;;;;;;10195910;29;20046;-81
2022/08/10 09:36:26;;;;;;;4.65;2.40;;;;;;;;;;10192247;29;20040;-82
2022/08/10 09:41:37;;;;;;;4.55;2.30;;;;;;;;;;10196691;29;20324;-81
2022/08/10 09:46:55;;;;;;;3.67;2.40;;;;;;;;;;10194143;29;20027;-82
2022/08/10 09:52:01;;;;;;;2.63;2.38;;;;;;;;;;10196241;29;20154;-82
2022/08/10 09:57:11;;;;;;;4.40;2.17;;;;;;;;;;10229710;28;20036;-81
2022/08/10 10:02:42;;;;;;;3.80;2.28;;;;;;;;;;10237421;28;20123;-82
2022/08/10 10:07:48;;;;;;;3.05;2.13;;;;;;;;;;10234596;28;20122;-81
2022/08/10 10:12:54;;;;;;;9.20;3.00;;;;;;;;;;10241842;28;20313;-77
2022/08/10 10:18:16;;;;;;;2.38;2.17;;;;;;;;;;10221585;28;20310;-79
2022/08/10 10:23:26;;;;;;;4.60;2.30;;;;;;;;;;10245910;28;20106;-78
2022/08/10 10:28:35;;;;;;;2.92;2.42;;;;;;;;;;10243050;28;20047;-78
2022/08/10 10:34:03;;;;;;;2.38;2.17;;;;;;;;;;10218954;28;20050;-78
2022/08/10 10:39:11;;;;;;;2.95;2.20;;;;;;;;;;10236954;28;20031;-78
2022/08/10 10:44:22;;;;;;;3.90;2.40;;;;;;;;;;10235229;28;20170;-78
2022/08/10 10:49:32;;;;;;;4.35;1.90;;;;;;;;;;10219576;28;20087;-77
2022/08/10 10:54:40;;;;;;;4.45;3.42;;;;;;;;;;10231653;28;20328;-77
2022/08/10 10:59:48;;;;;;;3.72;2.22;;;;;;;;;;10241627;28;20114;-78
2022/08/10 11:05:04;;;;;;;2.92;2.25;;;;;;;;;;10237852;28;20440;-77
2022/08/10 11:10:13;;;;;;;3.95;2.10;;;;;;;;;;10242715;28;20404;-77
2022/08/10 11:15:37;;;;;;;4.22;2.30;;;;;;;;;;10217486;28;20090;-77
2022/08/10 11:20:51;;;;;;;3.60;2.28;;;;;;;;;;10224519;28;20051;-77
2022/08/10 11:25:59;;;;;;;2.50;2.10;;;;;;;;;;10239952;28;20039;-78
2022/08/10 11:31:06;;;;;;;5.63;2.33;;;;;;;;;;10249215;28;20141;-78
2022/08/10 11:36:16;;;;;;;2.88;2.08;;;;;;;;;;10236186;28;20125;-77
2022/08/10 11:41:24;;;;;;;2.42;1.73;;;;;;;;;;10243888;28;20126;-77
2022/08/10 11:46:51;;;;;;;3.30;1.67;;;;;;;;;;10219513;28;20523;-77
2022/08/10 11:51:56;;;;;;;2.92;1.38;;;;;;;;;;10222771;28;20126;-78
2022/08/10 11:57:01;;;;;;;6.25;1.70;;;;;;;;;;10218334;28;20039;-78
2022/08/10 12:02:06;;;;;;;4.50;1.90;;;;;;;;;;10242229;28;20134;-78
2022/08/10 12:07:10;;;;;;;2.25;2.08;;;;;;;;;;10233036;28;20043;-77
2022/08/10 12:12:36;;;;;;;4.65;1.80;;;;;;;;;;10230604;28;20051;-78
2022/08/10 12:17:44;;;;;;;3.40;1.70;;;;;;;;;;10217797;28;20044;-79
2022/08/10 12:22:49;;;;;;;5.07;1.80;;;;;;;;;;10239743;28;20494;-79
2022/08/10 12:27:56;;;;;;;4.90;1.92;;;;;;;;;;10220433;28;20066;-77
2022/08/10 12:33:02;;;;;;;3.17;1.70;;;;;;;;;;10245099;28;20098;-77
2022/08/10 12:38:08;;;;;;;3.80;1.63;;;;;;;;;;10242587;28;20043;-77
2022/08/10 12:43:17;;;;;;;1.98;1.60;;;;;;;;;;10242756;28;20047;-77
2022/08/10 12:48:43;;;;;;;4.15;1.63;;;;;;;;;;10250070;28;20037;-77
2022/08/10 12:53:51;;;;;;;2.92;1.50;;;;;;;;;;10227149;28;20039;-78
2022/08/10 12:58:56;;;;;;;2.45;1.80;;;;;;;;;;10229518;28;20443;-78
2022/08/10 13:04:12;;;;;;;3.08;1.70;;;;;;;;;;10292229;23;20060;-90
2022/08/10 13:09:32;;;;;;;4.85;1.90;;;;;;;;;;10259595;29;20057;-90
2022/08/10 13:14:42;;;;;;;1.98;1.65;;;;;;;;;;10250587;29;20063;-91
2022/08/10 13:19:47;;;;;;;2.08;1.60;;;;;;;;;;10246260;28;20151;-90
2022/08/10 13:24:58;;;;;;;4.05;1.55;;;;;;;;;;10248048;29;20049;-91
2022/08/10 13:30:13;;;;;;;2.15;1.60;;;;;;;;;;10251401;29;20135;-89
2022/08/10 13:35:17;;;;;;;3.15;1.60;;;;;;;;;;10265464;28;20047;-89
2022/08/10 13:40:21;;;;;;;1.45;1.30;;;;;;;;;;10251946;29;20019;-91
2022/08/10 13:45:26;;;;;;;3.45;1.27;;;;;;;;;;10251445;29;20115;-91
2022/08/10 13:50:30;;;;;;;3.50;1.30;;;;;;;;;;10261040;28;20039;-91
2022/08/10 13:55:41;;;;;;;2.85;1.48;;;;;;;;;;10245653;28;20045;-90
2022/08/10 14:00:58;;;;;;;2.22;1.42;;;;;;;;;;10245928;28;20094;-90
2022/08/10 14:06:03;;;;;;;2.97;1.30;;;;;;;;;;10262400;28;20059;-90
2022/08/10 14:11:12;;;;;;;3.17;1.33;;;;;;;;;;10250621;29;20110;-89
2022/08/10 14:16:17;;;;;;;1.98;1.60;;;;;;;;;;10258564;28;20046;-89
2022/08/10 14:21:21;;;;;;;3.33;1.25;;;;;;;;;;10262321;29;20043;-88
2022/08/10 14:26:25;;;;;;;3.75;1.40;;;;;;;;;;10247583;28;20074;-89
2022/08/10 14:31:32;;;;;;;6.63;1.63;;;;;;;;;;10278549;28;20044;-89
2022/08/10 14:36:40;;;;;;;1.30;1.20;;;;;;;;;;10253514;28;20077;-90
2022/08/10 14:41:49;;;;;;;2.78;1.58;;;;;;;;;;10253836;28;20077;-89
2022/08/10 14:47:13;;;;;;;2.10;1.20;;;;;;;;;;10269301;28;20050;-89
2022/08/10 14:52:39;;;;;;;3.15;1.35;;;;;;;;;;10267436;28;20047;-89
2022/08/10 14:57:47;;;;;;;3.35;1.52;;;;;;;;;;10278004;28;20071;-88
2022/08/10 15:03:16;;;;;;;3.15;1.40;;;;;;;;;;10268270;28;20072;-88
2022/08/10 15:08:40;;;;;;;3.40;1.73;;;;;;;;;;10251635;28;20476;-89
2022/08/10 15:13:50;;;;;;;4.15;1.50;;;;;;;;;;10244984;28;20060;-89
2022/08/10 15:19:17;;;;;;;2.45;1.40;;;;;;;;;;10252902;29;20038;-89
2022/08/10 15:30:02;;;;;;;1.70;1.25;;;;;;;;;;10245234;29;20049;-89
2022/08/10 15:40:32;;;;;;;4.65;1.23;;;;;;;;;;10275896;28;20071;-89
2022/08/10 15:46:00;;;;;;;1.23;1.13;;;;;;;;;;10267994;28;20512;-90
2022/08/10 15:51:17;;;;;;;3.17;1.20;;;;;;;;;;10252051;29;20051;-89
2022/08/10 15:56:26;;;;;;;2.15;1.50;;;;;;;;;;10266485;28;20126;-88
2022/08/10 16:01:34;;;;;;;1.60;1.25;;;;;;;;;;10245727;28;20052;-85
2022/08/10 16:07:00;;;;;;;1.38;1.17;;;;;;;;;;10251136;28;20040;-85
2022/08/10 16:12:08;;;;;;;2.10;1.60;;;;;;;;;;10264436;29;20050;-85
2022/08/10 16:17:12;;;;;;;2.70;1.23;;;;;;;;;;10249640;28;20298;-85
2022/08/10 16:22:18;;;;;;;2.72;1.52;;;;;;;;;;10264587;28;20123;-85
2022/08/10 16:27:43;;;;;;;1.50;1.20;;;;;;;;;;10246924;28;20043;-86
2022/08/10 16:32:48;;;;;;;6.57;2.55;;;;;;;;;;10264348;28;20098;-86
2022/08/10 16:37:57;;;;;;;1.70;1.50;;;;;;;;;;10264950;29;20058;-86
2022/08/10 16:43:02;;;;;;;2.10;1.58;;;;;;;;;;10264478;28;20070;-85
2022/08/10 16:48:08;;;;;;;2.60;1.50;;;;;;;;;;10267120;28;20522;-86
2022/08/10 16:53:14;;;;;;;3.92;1.48;;;;;;;;;;10245311;28;20453;-87
2022/08/10 16:58:19;;;;;;;4.97;2.30;;;;;;;;;;10244501;29;20090;-85
2022/08/10 17:03:27;;;;;;;3.03;1.55;;;;;;;;;;10249018;29;20115;-85
2022/08/10 17:08:53;;;;;;;2.50;1.40;;;;;;;;;;10259736;28;20047;-85
2022/08/10 17:13:58;;;;;;;2.58;1.40;;;;;;;;;;10243423;29;20066;-86
2022/08/10 17:19:02;;;;;;;2.90;1.33;;;;;;;;;;10247681;29;20039;-86
2022/08/10 17:24:07;;;;;;;3.50;1.48;;;;;;;;;;10247218;29;20042;-86
2022/08/10 17:29:12;;;;;;;2.65;1.40;;;;;;;;;;10262387;29;20268;-86
2022/08/10 17:34:36;;;;;;;4.90;1.77;;;;;;;;;;10243499;29;20443;-85
2022/08/10 17:39:49;;;;;;;2.15;1.52;;;;;;;;;;10262540;28;20039;-85
2022/08/10 17:44:59;;;;;;;4.22;1.45;;;;;;;;;;10245896;29;20353;-85
2022/08/10 17:50:13;;;;;;;3.05;1.45;;;;;;;;;;10230271;29;20103;-85
2022/08/10 18:00:42;;;;;;;2.72;1.80;;;;;;;;;;10260789;29;20043;-87
2022/08/10 18:05:50;;;;;;;2.67;1.77;;;;;;;;;;10268018;28;20038;-85
2022/08/10 18:11:04;;;;;;;2.92;1.70;;;;;;;;;;10274011;28;20053;-85
2022/08/10 18:16:10;;;;;;;1.75;1.60;;;;;;;;;;10258163;29;20054;-85
2022/08/10 18:21:34;;;;;;;3.65;1.70;;;;;;;;;;10250016;28;20059;-86
2022/08/10 18:27:02;;;;;;;2.05;1.65;;;;;;;;;;10266321;28;20062;-86
2022/08/10 18:32:08;;;;;;;5.03;1.70;;;;;;;;;;10268774;28;20043;-85
2022/08/10 18:37:17;;;;;;;2.53;1.90;;;;;;;;;;10266127;28;20066;-84
2022/08/10 18:42:36;;;;;;;2.92;1.90;;;;;;;;;;10266594;28;20049;-84
2022/08/10 18:47:46;;;;;;;3.63;2.05;;;;;;;;;;10248927;29;20050;-84
2022/08/10 18:53:06;;;;;;;3.90;1.65;;;;;;;;;;10256215;29;20123;-84
2022/08/10 18:58:49;;;;;;;2.67;1.90;;;;;;;;;;10251598;28;20047;-85
2022/08/10 19:04:20;;;;;;;2.92;2.10;;;;;;;;;;10248464;29;20040;-72
2022/08/10 19:09:34;;;;;;;3.35;1.77;;;;;;;;;;10244537;29;20081;-71
2022/08/10 19:14:56;;;;;;;3.75;1.90;;;;;;;;;;10231362;29;20053;-72
2022/08/10 19:20:11;;;;;;;8.02;2.00;;;;;;;;;;10229955;29;20031;-72
2022/08/10 19:25:23;;;;;;;3.95;2.00;;;;;;;;;;10246725;29;20061;-72
2022/08/10 19:30:54;;;;;;;3.53;1.90;;;;;;;;;;10263043;28;20059;-72
2022/08/10 19:36:08;;;;;;;2.97;1.80;;;;;;;;;;10225760;29;20055;-72
2022/08/10 19:41:16;;;;;;;3.55;2.00;;;;;;;;;;10262078;29;20051;-72
2022/08/10 19:46:43;;;;;;;2.97;2.05;;;;;;;;;;10260312;29;20051;-74
2022/08/10 19:52:28;;;;;;;6.00;3.47;;;;;;;;;;10262075;29;20051;-75
2022/08/10 19:57:40;;;;;;;4.95;2.03;;;;;;;;;;10244190;29;20053;-77
2022/08/10 20:03:11;;;;;;;7.85;2.72;;;;;;;;;;10241271;29;20526;-76
2022/08/10 20:08:36;;;;;;;7.03;2.22;;;;;;;;;;10244908;28;20123;-74
2022/08/10 20:13:49;;;;;;;3.65;2.00;;;;;;;;;;10243882;29;20071;-74
2022/08/10 20:18:58;;;;;;;5.50;2.20;;;;;;;;;;10241462;29;20496;-74
2022/08/10 20:24:17;;;;;;;2.95;2.15;;;;;;;;;;10258551;29;20058;-74
2022/08/10 20:29:34;;;;;;;4.72;2.30;;;;;;;;;;10241054;28;20074;-74
2022/08/10 20:35:09;;;;;;;3.95;2.38;;;;;;;;;;10246762;29;20086;-74
2022/08/10 20:40:24;;;;;;;3.05;2.03;;;;;;;;;;10246629;28;20086;-75
2022/08/10 20:45:30;;;;;;;5.13;2.40;;;;;;;;;;10241691;29;20123;-75
2022/08/10 20:51:07;;;;;;;3.55;1.92;;;;;;;;;;10259710;29;20115;-75
2022/08/10 20:56:17;;;;;;;4.10;2.03;;;;;;;;;;10246042;29;20042;-75
2022/08/10 21:01:30;;;;;;;3.30;2.15;;;;;;;;;;10255836;29;20071;-75
2022/08/10 21:07:04;;;;;;;4.47;2.08;;;;;;;;;;10240098;28;20043;-76
2022/08/10 21:13:00;;;;;;;3.88;2.22;;;;;;;;;;10243948;29;20039;-76
2022/08/10 21:18:19;;;;;;;3.38;2.28;;;;;;;;;;10241851;29;20086;-74
2022/08/10 21:23:26;;;;;;;5.70;2.38;;;;;;;;;;10259708;28;20073;-73
2022/08/10 23:01:51;;;;;;;6.82;3.05;;;;;;;;;;10266044;28;20074;-73
2022/08/10 23:07:23;;;;;;;4.80;2.85;;;;;;;;;;10252756;28;20050;-74
2022/08/10 23:12:34;;;;;;;6.65;2.53;;;;;;;;;;10249753;29;20122;-74
2022/08/10 23:23:08;;;;;;;4.70;2.30;;;;;;;;;;10246577;29;20051;-73
2022/08/10 23:28:18;;;;;;;5.10;2.53;;;;;;;;;;10251076;29;20043;-74
2022/08/10 23:33:54;;;;;;;4.65;2.50;;;;;;;;;;10245786;29;20425;-74
2022/08/10 23:38:59;;;;;;;5.88;2.72;;;;;;;;;;10265445;29;20109;-74
2022/08/10 23:44:25;;;;;;;7.20;2.95;;;;;;;;;;10245959;29;20346;-75
2022/08/10 23:49:34;;;;;;;5.55;3.15;;;;;;;;;;10248065;29;20042;-74
2022/08/10 23:54:45;;;;;;;4.40;2.63;;;;;;;;;;10248108;29;20051;-75
2022/08/10 23:59:50;;;;;;;4.72;2.65;;;;;;;;;;10247567;29;20137;-75
